KGSO/GSO METAR and TAF weather

Enter ICAO airport designator
Station Type Date Time Source
KGSO METAR 2021/07/26 13:54 UTC NOAA

KGSO 261354Z 23007KT 8SM SCT110 BKN200 26/22 A3002 RMK AO2 SLP154 T02560217


Station Type Date Time Source
KGSO Decoded METAR 2021/07/26 13:54 UTC NOAA

PIEDMONT TRIAD INTERNATIONAL AIRPORT , NC, United States (KGSO) 36-06N 079-57W 275M
Jul 26, 2021 - 09:54 AM EDT / 2021.07.26 1354 UTC
Wind: from the SW (230 degrees) at 8 MPH (7 KT):0
Visibility: 8 mile(s):0
Sky conditions: mostly cloudy
Temperature: 78.1 F (25.6 C)
Dew Point: 71.1 F (21.7 C)
Relative Humidity: 79%
Pressure (altimeter): 30.02 in. Hg (1016 hPa)
ob: KGSO 261354Z 23007KT 8SM SCT110 BKN200 26/22 A3002 RMK AO2 SLP154 T02560217
cycle: 14

Station Type Date Time Source
KGSO TAF 2021/07/26 12:22 UTC NOAA

TAF KGSO 261120Z 2612/2712 21004KT P6SM FEW035 SCT110 BKN250
TEMPO 2614/2616 BKN018
FM261900 22005KT P6SM VCSH BKN040 BKN250
TEMPO 2620/2624 VRB15G30KT 1 1/2SM -TSRA BR BKN035CB OVC100

Example: see airport list